createdAt,value
2022-08-07T00:00:02.935Z,1009.09
2022-08-07T00:05:00.166Z,1009.12
2022-08-07T00:10:19.559Z,1009.1
2022-08-07T00:15:00.105Z,1009.09
2022-08-07T00:20:03.438Z,1009.12
2022-08-07T00:25:00.138Z,1009.1
2022-08-07T00:30:00.141Z,1009.05
2022-08-07T00:35:00.100Z,1009.01
2022-08-07T00:40:00.203Z,1008.96
2022-08-07T00:45:00.116Z,1008.96
2022-08-07T00:50:17.521Z,1008.95
2022-08-07T00:55:00.089Z,1008.96
2022-08-07T01:00:00.163Z,1008.98
2022-08-07T01:05:00.149Z,1009
2022-08-07T01:10:05.488Z,1008.87
2022-08-07T01:15:00.873Z,1008.83
2022-08-07T01:20:00.153Z,1008.86
2022-08-07T01:25:00.224Z,1008.84
2022-08-07T01:30:00.669Z,1008.84
2022-08-07T01:35:00.091Z,1008.81
2022-08-07T01:40:00.205Z,1008.85
2022-08-07T01:45:00.115Z,1008.84
2022-08-07T01:50:00.508Z,1008.97
2022-08-07T01:55:00.115Z,1008.9
2022-08-07T02:00:00.158Z,1008.86
2022-08-07T02:05:00.114Z,1008.83
2022-08-07T02:10:00.118Z,1008.88
2022-08-07T02:15:00.532Z,1008.91
2022-08-07T02:20:03.888Z,1008.81
2022-08-07T02:25:00.116Z,1008.82
2022-08-07T02:30:00.127Z,1008.87
2022-08-07T02:35:00.768Z,1008.81
2022-08-07T02:40:01.875Z,1008.82
2022-08-07T02:45:00.092Z,1008.91
2022-08-07T02:50:00.476Z,1008.9
2022-08-07T02:55:00.112Z,1008.92
2022-08-07T03:00:01.048Z,1008.93
2022-08-07T03:05:00.089Z,1008.83
2022-08-07T03:10:00.113Z,1008.88
2022-08-07T03:15:02.317Z,1008.86
2022-08-07T03:20:00.110Z,1008.78
2022-08-07T03:25:00.143Z,1008.87
2022-08-07T03:30:00.117Z,1008.77
2022-08-07T03:35:00.787Z,1008.78
2022-08-07T03:40:15.116Z,1008.65
2022-08-07T03:45:00.120Z,1008.7
2022-08-07T03:50:00.137Z,1008.65
2022-08-07T03:55:07.208Z,1008.65
2022-08-07T04:00:02.004Z,1008.78
2022-08-07T04:05:00.084Z,1008.75
2022-08-07T04:10:00.093Z,1008.78
2022-08-07T04:15:00.379Z,1008.81
2022-08-07T04:20:00.108Z,1008.86
2022-08-07T04:25:01.273Z,1008.84
2022-08-07T04:30:01.771Z,1008.81
2022-08-07T04:35:00.091Z,1008.76
2022-08-07T04:40:00.293Z,1008.86
2022-08-07T04:45:02.764Z,1008.78
2022-08-07T04:50:03.785Z,1008.99
2022-08-07T04:55:00.093Z,1008.92
2022-08-07T05:00:08.150Z,1008.89
2022-08-07T05:05:00.089Z,1008.97
2022-08-07T05:10:00.692Z,1009.02
2022-08-07T05:15:04.642Z,1009.08
2022-08-07T05:20:00.097Z,1009.11
2022-08-07T05:25:00.498Z,1009.08
2022-08-07T05:30:00.138Z,1009.09
2022-08-07T05:35:00.085Z,1009.02
2022-08-07T05:40:05.285Z,1009.04
2022-08-07T05:45:04.258Z,1009.09
2022-08-07T05:50:00.144Z,1009.15
2022-08-07T05:55:06.953Z,1009.12
2022-08-07T06:00:00.167Z,1009.12
2022-08-07T06:05:00.093Z,1009.15
2022-08-07T06:10:04.817Z,1009.17
2022-08-07T06:15:02.984Z,1009.12
2022-08-07T06:20:03.839Z,1009.12
2022-08-07T06:25:01.303Z,1009.04
2022-08-07T06:30:00.132Z,1009.09
2022-08-07T06:35:00.102Z,1009.09
2022-08-07T06:40:14.108Z,1009.26
2022-08-07T06:45:00.100Z,1009.12
2022-08-07T06:50:00.089Z,1009.2
2022-08-07T06:55:30.572Z,1009.2
2022-08-07T07:00:10.887Z,1009.21
2022-08-07T07:05:00.083Z,1009.27
2022-08-07T07:10:00.125Z,1009.24
2022-08-07T07:15:00.105Z,1009.25
2022-08-07T07:20:00.087Z,1009.2
2022-08-07T07:25:02.718Z,1009.17
2022-08-07T07:30:09.471Z,1009.12
2022-08-07T07:35:00.083Z,1009.01
2022-08-07T07:40:00.078Z,1009.03
2022-08-07T07:45:00.086Z,1009.02
2022-08-07T07:50:31.696Z,1008.99
2022-08-07T07:55:00.077Z,1009.03
2022-08-07T08:00:00.141Z,1008.92
2022-08-07T08:05:00.073Z,1008.88
2022-08-07T08:10:04.746Z,1008.82
2022-08-07T08:15:00.088Z,1008.8
2022-08-07T08:20:16.771Z,1008.75
2022-08-07T08:25:04.892Z,1008.87
2022-08-07T08:30:00.102Z,1008.79
2022-08-07T08:35:00.095Z,1008.82
2022-08-07T08:40:00.157Z,1008.79
2022-08-07T08:45:00.095Z,1008.62
2022-08-07T08:50:02.859Z,1008.75
2022-08-07T08:55:01.128Z,1008.67
2022-08-07T09:00:00.256Z,1008.72
2022-08-07T09:05:00.097Z,1008.76
2022-08-07T09:10:00.087Z,1008.62
2022-08-07T09:15:00.091Z,1008.67
2022-08-07T09:20:00.100Z,1008.62
2022-08-07T09:25:06.139Z,1008.64
2022-08-07T09:30:02.972Z,1008.49
2022-08-07T09:35:00.100Z,1008.5
2022-08-07T09:40:00.192Z,1008.44
2022-08-07T09:46:28.819Z,1008.47
2022-08-07T09:50:04.127Z,1008.44
2022-08-07T09:55:00.105Z,1008.23
2022-08-07T10:00:01.140Z,1008.27
2022-08-07T10:05:00.243Z,1008.15
2022-08-07T10:10:02.807Z,1008.13
2022-08-07T10:15:00.124Z,1008.09
2022-08-07T10:20:00.096Z,1007.95
2022-08-07T10:25:00.096Z,1007.83
2022-08-07T10:30:00.136Z,1007.86
2022-08-07T10:35:00.085Z,1007.85
2022-08-07T10:40:03.173Z,1007.62
2022-08-07T10:45:00.109Z,1007.61
2022-08-07T10:50:00.115Z,1007.63
2022-08-07T10:55:01.269Z,1007.56
2022-08-07T11:00:00.201Z,1007.52
2022-08-07T11:05:00.106Z,1007.43
2022-08-07T11:10:06.794Z,1007.25
2022-08-07T11:15:00.979Z,1007.28
2022-08-07T11:20:00.097Z,1007.26
2022-08-07T11:25:00.091Z,1007.24
2022-08-07T11:30:10.323Z,1007.18
2022-08-07T11:35:00.120Z,1007.15
2022-08-07T11:40:01.886Z,1007.07
2022-08-07T11:45:00.109Z,1007.1
2022-08-07T11:50:25.613Z,1007
2022-08-07T11:55:00.116Z,1006.93
2022-08-07T12:00:09.115Z,1006.95
2022-08-07T12:05:00.097Z,1006.91
2022-08-07T12:10:02.105Z,1006.9
2022-08-07T12:15:00.507Z,1006.8
2022-08-07T12:20:03.420Z,1006.75
2022-08-07T12:25:02.162Z,1006.73
2022-08-07T12:30:00.113Z,1006.67
2022-08-07T12:35:00.940Z,1006.58
2022-08-07T12:40:00.161Z,1006.61
2022-08-07T12:45:00.112Z,1006.46
2022-08-07T12:50:04.409Z,1006.43
2022-08-07T12:55:04.012Z,1006.33
2022-08-07T13:00:00.141Z,1006.36
2022-08-07T13:05:02.041Z,1006.35
2022-08-07T13:10:18.805Z,1006.25
2022-08-07T13:15:00.141Z,1006.41
2022-08-07T13:20:00.101Z,1006.25
2022-08-07T13:25:00.356Z,1006.27
2022-08-07T13:30:00.100Z,1006.19
2022-08-07T13:35:00.080Z,1006.15
2022-08-07T13:40:37.049Z,1006.13
2022-08-07T13:45:11.912Z,1005.96
2022-08-07T13:50:31.899Z,1005.97
2022-08-07T13:55:00.574Z,1005.95
2022-08-07T14:00:00.241Z,1005.83
2022-08-07T14:05:00.167Z,1005.76
2022-08-07T14:10:03.295Z,1005.73
2022-08-07T14:15:00.089Z,1005.72
2022-08-07T14:20:41.500Z,1005.65
2022-08-07T14:25:00.098Z,1005.61
2022-08-07T14:30:02.699Z,1005.71
2022-08-07T14:35:00.071Z,1005.58
2022-08-07T14:40:15.123Z,1005.59
2022-08-07T14:45:00.143Z,1005.6
2022-08-07T14:50:00.193Z,1005.52
2022-08-07T14:55:00.090Z,1005.44
2022-08-07T15:05:01.596Z,1005.43
2022-08-07T15:10:02.081Z,1005.53
2022-08-07T15:15:00.095Z,1005.52
2022-08-07T15:20:32.189Z,1005.5
2022-08-07T15:25:03.621Z,1005.45
2022-08-07T15:30:03.991Z,1005.35
2022-08-07T15:35:00.089Z,1005.29
2022-08-07T15:40:00.089Z,1005.3
2022-08-07T15:45:00.097Z,1005.23
2022-08-07T15:50:04.668Z,1005.17
2022-08-07T15:55:02.574Z,1005.14
2022-08-07T16:00:04.077Z,1005.1
2022-08-07T16:05:00.102Z,1005.07
2022-08-07T16:10:00.072Z,1005.05
2022-08-07T16:15:00.105Z,1005.03
2022-08-07T16:20:00.189Z,1004.95
2022-08-07T16:25:00.120Z,1005.02
2022-08-07T16:30:07.989Z,1004.96
2022-08-07T16:35:00.089Z,1004.89
2022-08-07T16:40:00.220Z,1004.9
2022-08-07T16:45:31.257Z,1004.87
2022-08-07T16:50:19.778Z,1004.96
2022-08-07T16:55:00.081Z,1005.01
2022-08-07T17:00:00.141Z,1004.97
2022-08-07T17:05:00.083Z,1004.95
2022-08-07T17:10:05.820Z,1004.94
2022-08-07T17:15:00.084Z,1004.96
2022-08-07T17:20:01.166Z,1004.97
2022-08-07T17:25:00.103Z,1005.03
2022-08-07T17:30:13.754Z,1004.88
2022-08-07T17:35:40.275Z,1004.97
2022-08-07T17:40:03.264Z,1004.95
2022-08-07T17:45:00.110Z,1005.02
2022-08-07T17:50:00.090Z,1004.92
2022-08-07T17:55:00.077Z,1004.94
2022-08-07T18:00:00.151Z,1004.94
2022-08-07T18:05:00.099Z,1004.94
2022-08-07T18:10:05.436Z,1004.92
2022-08-07T18:15:00.115Z,1004.97
2022-08-07T18:21:05.208Z,1004.99
2022-08-07T18:25:00.090Z,1004.97
2022-08-07T18:30:04.788Z,1005.06
2022-08-07T18:35:00.677Z,1005.08
2022-08-07T18:40:05.903Z,1005.03
2022-08-07T18:45:40.745Z,1005.18
2022-08-07T18:50:06.355Z,1005.15
2022-08-07T18:55:00.080Z,1005.18
2022-08-07T19:00:00.689Z,1005.18
2022-08-07T19:05:10.833Z,1005.24
2022-08-07T19:10:00.112Z,1005.38
2022-08-07T19:15:00.528Z,1005.3
2022-08-07T19:20:00.102Z,1005.29
2022-08-07T19:25:05.366Z,1005.43
2022-08-07T19:30:54.912Z,1005.49
2022-08-07T19:35:00.072Z,1005.5
2022-08-07T19:40:01.754Z,1005.54
2022-08-07T19:45:00.502Z,1005.59
2022-08-07T19:50:03.141Z,1005.61
2022-08-07T19:55:00.132Z,1005.62
2022-08-07T20:00:00.133Z,1005.56
2022-08-07T20:05:00.249Z,1005.64
2022-08-07T20:10:34.713Z,1005.67
2022-08-07T20:15:00.108Z,1005.75
2022-08-07T20:20:00.594Z,1005.73
2022-08-07T20:25:00.094Z,1005.83
2022-08-07T20:30:00.495Z,1005.86
2022-08-07T20:35:00.104Z,1005.9
2022-08-07T20:40:03.498Z,1005.92
2022-08-07T20:45:00.125Z,1005.86
2022-08-07T20:50:01.914Z,1005.86
2022-08-07T20:55:00.090Z,1005.87
2022-08-07T21:00:05.726Z,1005.91
2022-08-07T21:05:00.099Z,1005.83
2022-08-07T21:10:00.795Z,1005.79
2022-08-07T21:15:00.813Z,1005.82
2022-08-07T21:20:01.196Z,1005.89
2022-08-07T21:25:00.123Z,1005.88
2022-08-07T21:30:00.114Z,1005.95
2022-08-07T21:35:00.107Z,1005.81
2022-08-07T21:40:00.178Z,1005.97
2022-08-07T21:45:00.128Z,1006.02
2022-08-07T21:50:00.982Z,1006
2022-08-07T21:55:00.105Z,1005.96
2022-08-07T22:00:03.410Z,1005.96
2022-08-07T22:05:00.090Z,1006
2022-08-07T22:10:00.111Z,1006.03
2022-08-07T22:15:00.565Z,1006.13
2022-08-07T22:20:00.079Z,1006.12
2022-08-07T22:25:00.108Z,1006.15
2022-08-07T22:30:00.113Z,1006.12
2022-08-07T22:35:00.117Z,1006.08
2022-08-07T22:40:00.261Z,1006.03
2022-08-07T22:45:02.110Z,1006.06
2022-08-07T22:50:00.083Z,1006.13
2022-08-07T22:55:00.135Z,1006.1
2022-08-07T23:00:00.172Z,1006.1
2022-08-07T23:06:05.249Z,1006.04
2022-08-07T23:10:00.572Z,1006.08
2022-08-07T23:15:00.110Z,1006.04
2022-08-07T23:20:03.103Z,1006.1
2022-08-07T23:25:00.116Z,1006.13
2022-08-07T23:30:36.466Z,1005.97
2022-08-07T23:35:00.839Z,1006.1
2022-08-07T23:40:00.255Z,1006.04
2022-08-07T23:45:00.109Z,1006.06
2022-08-07T23:50:00.082Z,1006.06
2022-08-07T23:55:00.097Z,1006.06
